Time;durP1;ratioP1;P1;durP2;ratioP2;P2;SDS_P1;SDS_P2;PMS_P1;PMS_P2;Temp;Humidity;BMP_temperature;BMP_pressure;BME280_temperature;BME280_humidity;BME280_pressure;Samples;Min_cycle;Max_cycle;Signal;HPM_P1;HPM_P2
2022/09/30 00:01:08;;;;;;;12.45;8.30;;;;;;;10.47;58.28;100734.56;4981130;28;113586;-62
2022/09/30 00:03:35;;;;;;;9.70;8.35;;;;;;;10.45;57.96;100733.78;4977009;28;114008;-63
2022/09/30 00:06:05;;;;;;;11.88;8.05;;;;;;;10.43;57.94;100730.34;4978776;28;124326;-63
2022/09/30 00:08:36;;;;;;;10.20;7.93;;;;;;;10.41;58.04;100737.50;4975553;28;124197;-63
2022/09/30 00:11:06;;;;;;;14.38;9.40;;;;;;;10.37;57.99;100739.44;4976158;28;115397;-62
2022/09/30 00:13:36;;;;;;;13.95;9.00;;;;;;;10.35;58.01;100732.50;4960116;28;114568;-63
2022/09/30 00:16:04;;;;;;;16.17;9.27;;;;;;;10.32;58.16;100744.97;4977291;28;124917;-62
2022/09/30 00:18:31;;;;;;;16.65;10.35;;;;;;;10.32;58.29;100744.97;4977030;28;124409;-62
2022/09/30 00:21:00;;;;;;;13.57;9.82;;;;;;;10.30;58.15;100746.81;4974755;28;115237;-63
2022/09/30 00:23:27;;;;;;;11.80;9.43;;;;;;;10.28;58.22;100753.94;4979482;28;114322;-63
2022/09/30 00:26:00;;;;;;;14.93;10.27;;;;;;;10.26;58.27;100755.75;4976053;28;124222;-63
2022/09/30 00:28:28;;;;;;;14.23;10.20;;;;;;;10.24;58.37;100752.34;4976662;28;124648;-62
2022/09/30 00:31:00;;;;;;;13.77;9.73;;;;;;;10.23;58.38;100749.78;4979183;28;114195;-62
2022/09/30 00:33:28;;;;;;;13.95;9.75;;;;;;;10.21;58.29;100747.19;4973569;28;113960;-62
2022/09/30 00:35:55;;;;;;;12.43;9.93;;;;;;;10.20;58.37;100749.91;4972394;28;123139;-62
2022/09/30 00:38:22;;;;;;;14.52;9.15;;;;;;;10.17;58.20;100750.03;4975939;28;125873;-62
2022/09/30 00:40:50;;;;;;;12.15;9.38;;;;;;;10.13;58.08;100749.31;4981107;28;114400;-62
2022/09/30 00:43:37;;;;;;;13.25;9.75;;;;;;;10.09;57.94;100750.38;4972855;28;114663;-62
2022/09/30 00:46:05;;;;;;;11.95;9.57;;;;;;;10.06;58.00;100753.19;4969502;28;124294;-62
2022/09/30 00:48:36;;;;;;;13.88;10.55;;;;;;;10.02;58.18;100754.22;4970237;28;123858;-63
2022/09/30 00:51:05;;;;;;;15.65;9.95;;;;;;;10.01;58.43;100755.16;4975855;28;112308;-63
2022/09/30 00:53:40;;;;;;;15.50;10.30;;;;;;;9.99;58.41;100746.44;4974858;28;113969;-63
2022/09/30 00:56:15;;;;;;;15.07;9.93;;;;;;;9.97;58.25;100748.28;4973036;28;124775;-63
2022/09/30 00:58:55;;;;;;;13.05;10.02;;;;;;;9.93;57.90;100748.41;4980693;28;125521;-63
2022/09/30 01:01:23;;;;;;;13.27;10.30;;;;;;;9.89;58.29;100746.84;4980987;28;115292;-63
2022/09/30 01:03:55;;;;;;;14.35;10.05;;;;;;;9.87;58.44;100753.97;4978039;28;115093;-63
2022/09/30 01:06:23;;;;;;;15.45;10.02;;;;;;;9.84;58.22;100751.47;4976166;28;124139;-63
2022/09/30 01:08:50;;;;;;;12.70;10.25;;;;;;;9.82;58.84;100755.97;4977362;28;124026;-63
2022/09/30 01:11:18;;;;;;;14.43;10.00;;;;;;;9.81;58.17;100762.16;4979234;28;114511;-63
2022/09/30 01:13:49;;;;;;;11.05;8.43;;;;;;;9.80;58.38;100763.09;4971507;28;114137;-63
2022/09/30 01:16:25;;;;;;;12.38;8.40;;;;;;;9.76;58.13;100750.94;4953790;28;124177;-63
2022/09/30 01:19:31;;;;;;;10.90;8.77;;;;;;;9.72;58.32;100754.66;4976851;28;124293;-63
2022/09/30 01:22:21;;;;;;;13.35;9.80;;;;;;;9.68;58.17;100756.56;4960087;28;114118;-63
2022/09/30 01:25:10;;;;;;;11.88;9.75;;;;;;;9.66;58.27;100760.19;4976735;28;114406;-63
2022/09/30 01:27:56;;;;;;;12.52;9.57;;;;;;;9.63;58.49;100760.34;4980250;28;124064;-62
2022/09/30 01:30:38;;;;;;;;;;;;;;;9.59;58.11;100758.72;4973660;28;122835;-63
2022/09/30 01:33:38;;;;;;;11.95;8.32;;;;;;;9.54;58.50;100757.13;4979302;28;96946;-62
2022/09/30 01:36:15;;;;;;;12.43;9.50;;;;;;;9.52;58.42;100748.41;4972302;28;113984;-62
2022/09/30 01:39:00;;;;;;;15.45;10.80;;;;;;;9.50;58.58;100759.97;4971966;28;124302;-62
2022/09/30 01:41:46;;;;;;;15.07;10.80;;;;;;;9.47;58.38;100750.38;4972507;28;122788;-62
2022/09/30 01:44:28;;;;;;;14.60;11.43;;;;;;;9.43;58.79;100756.72;4978577;28;115100;-62
2022/09/30 01:47:07;;;;;;;14.52;10.68;;;;;;;9.44;58.55;100761.09;4976002;28;114105;-62
2022/09/30 01:49:44;;;;;;;14.40;10.57;;;;;;;9.43;58.99;100755.88;4976127;28;124204;-62
2022/09/30 01:52:33;;;;;;;18.25;11.20;;;;;;;9.42;58.86;100747.09;4983140;28;123960;-62
2022/09/30 01:55:33;;;;;;;14.82;11.00;;;;;;;9.40;58.89;100746.28;4978015;28;115868;-63
2022/09/30 01:58:30;;;;;;;16.05;10.38;;;;;;;9.40;58.66;100743.66;4974083;28;115671;-62
2022/09/30 02:01:01;;;;;;;14.57;10.20;;;;;;;9.37;58.94;100749.06;4973040;28;124395;-62
2022/09/30 02:03:38;;;;;;;12.50;9.43;;;;;;;9.36;59.01;100752.59;4978970;28;125413;-62
2022/09/30 02:06:10;;;;;;;13.05;9.70;;;;;;;9.36;58.62;100752.59;4972654;28;115297;-62
2022/09/30 02:09:23;;;;;;;15.77;10.25;;;;;;;9.32;58.57;100746.63;4978460;28;114299;-62
2022/09/30 02:11:55;;;;;;;12.65;9.23;;;;;;;9.32;58.77;100748.38;4971653;28;124723;-62
2022/09/30 02:14:35;;;;;;;12.77;9.38;;;;;;;9.30;58.64;100756.34;4986837;28;123995;-62
2022/09/30 02:17:14;;;;;;;13.20;8.70;;;;;;;9.28;58.39;100760.00;4974507;28;113809;-62
2022/09/30 02:19:50;;;;;;;11.20;8.20;;;;;;;9.26;58.30;100761.84;4986381;28;114086;-62
2022/09/30 02:22:20;;;;;;;9.20;7.20;;;;;;;9.23;58.30;100762.84;4986002;28;124859;-62
2022/09/30 02:24:54;;;;;;;10.07;7.65;;;;;;;9.20;58.25;100756.81;4984782;28;124224;-62
2022/09/30 02:27:28;;;;;;;11.45;8.73;;;;;;;9.15;58.42;100749.94;4970720;28;113338;-62
2022/09/30 02:29:59;;;;;;;12.48;8.98;;;;;;;9.13;58.55;100757.06;4984708;28;114382;-62
2022/09/30 02:32:55;;;;;;;11.95;8.70;;;;;;;9.09;58.62;100755.47;4983636;28;125274;-62
2022/09/30 02:35:33;;;;;;;13.13;9.00;;;;;;;9.06;58.59;100755.59;4975520;28;124760;-62
2022/09/30 02:38:09;;;;;;;11.73;9.15;;;;;;;9.05;58.37;100764.44;4976893;28;115109;-62
2022/09/30 02:40:42;;;;;;;12.77;9.00;;;;;;;9.04;58.66;100762.72;4974277;28;113983;-62
2022/09/30 02:43:10;;;;;;;11.43;8.88;;;;;;;9.03;58.83;100755.72;4978191;28;124114;-62
2022/09/30 02:45:49;;;;;;;11.35;8.70;;;;;;;9.01;58.54;100762.84;4954815;28;123631;-62
2022/09/30 02:48:30;;;;;;;14.35;9.45;;;;;;;9.00;58.88;100761.09;4976076;28;115089;-62
2022/09/30 02:51:10;;;;;;;11.30;8.90;;;;;;;8.97;58.79;100761.25;4980796;28;114794;-62
2022/09/30 02:53:51;;;;;;;14.50;9.73;;;;;;;8.96;58.57;100754.22;4977764;28;124619;-62
2022/09/30 02:56:23;;;;;;;12.20;9.60;;;;;;;8.96;58.60;100755.09;4975432;28;122863;-62
2022/09/30 02:58:55;;;;;;;16.48;10.48;;;;;;;8.95;58.59;100758.66;4982760;28;114354;-62
2022/09/30 03:01:23;;;;;;;16.10;11.18;;;;;;;8.94;58.89;100756.06;4977919;28;114056;-62
2022/09/30 03:03:58;;;;;;;16.70;11.70;;;;;;;8.92;58.83;100757.94;4978137;28;123878;-62
2022/09/30 03:06:26;;;;;;;15.63;11.23;;;;;;;8.89;59.00;100758.03;4975465;28;123283;-62
2022/09/30 03:08:53;;;;;;;15.18;11.15;;;;;;;8.89;59.04;100758.91;4977223;28;115108;-62
2022/09/30 03:11:27;;;;;;;16.55;12.90;;;;;;;8.91;59.11;100766.75;4982609;28;114338;-62
2022/09/30 03:14:22;;;;;;;17.63;11.70;;;;;;;8.90;59.00;100760.63;4980295;28;123932;-62
2022/09/30 03:17:13;;;;;;;18.52;12.98;;;;;;;8.89;59.00;100764.19;4981359;28;124211;-62
2022/09/30 03:20:30;;;;;;;17.80;12.60;;;;;;;8.87;59.00;100770.44;4982668;28;113260;-62
2022/09/30 03:23:03;;;;;;;16.90;12.68;;;;;;;8.85;59.02;100767.00;4958320;28;114593;-63
2022/09/30 03:25:36;;;;;;;15.85;11.98;;;;;;;8.82;59.01;100767.13;4979271;28;123983;-62
2022/09/30 03:28:25;;;;;;;17.40;12.80;;;;;;;8.80;59.40;100768.94;4977190;28;123931;-62
2022/09/30 03:31:02;;;;;;;15.05;12.05;;;;;;;8.79;59.31;100777.81;4979971;28;114395;-62
2022/09/30 03:34:14;;;;;;;15.63;11.75;;;;;;;8.78;59.40;100776.97;4980422;28;114082;-62
2022/09/30 03:37:05;;;;;;;14.70;11.05;;;;;;;8.77;59.04;100791.91;4974009;28;124473;-62
2022/09/30 03:39:45;;;;;;;18.17;12.20;;;;;;;8.76;59.00;100795.50;4976941;28;124318;-62
2022/09/30 03:42:17;;;;;;;16.05;10.95;;;;;;;8.74;59.14;100797.34;4974047;28;114853;-62
2022/09/30 03:45:02;;;;;;;17.92;11.25;;;;;;;8.71;59.00;100797.44;4976447;28;114918;-62
2022/09/30 03:47:34;;;;;;;16.00;10.93;;;;;;;8.68;58.82;100797.59;4974518;28;124009;-62
2022/09/30 03:50:07;;;;;;;18.05;12.18;;;;;;;8.67;58.96;100801.13;4982573;28;123685;-62
2022/09/30 03:52:35;;;;;;;16.92;11.88;;;;;;;8.66;58.94;100796.75;4964602;28;113316;-63
2022/09/30 03:55:06;;;;;;;17.67;12.70;;;;;;;8.66;59.07;100788.84;4970983;28;115378;-62
2022/09/30 03:57:33;;;;;;;17.88;11.88;;;;;;;8.66;59.22;100794.09;4977800;28;124752;-62
2022/09/30 04:00:01;;;;;;;16.92;11.73;;;;;;;8.66;58.90;100794.09;4974912;28;123938;-62
2022/09/30 04:02:31;;;;;;;18.60;11.75;;;;;;;8.65;59.34;100802.97;4981084;28;115139;-62
2022/09/30 04:04:58;;;;;;;17.60;12.07;;;;;;;8.64;59.13;100801.22;4980184;28;114390;-62
2022/09/30 04:07:25;;;;;;;17.35;12.75;;;;;;;8.63;59.13;100799.53;4980566;28;124644;-62
2022/09/30 04:09:52;;;;;;;18.55;13.13;;;;;;;8.63;59.39;100794.25;4976108;28;123674;-63
2022/09/30 04:12:19;;;;;;;18.25;12.40;;;;;;;8.63;59.53;100799.53;4970389;28;114826;-62
2022/09/30 04:14:46;;;;;;;22.65;12.40;;;;;;;8.61;59.25;100811.94;4973326;28;114562;-62
2022/09/30 04:17:14;;;;;;;15.75;11.60;;;;;;;8.60;59.17;100815.47;4976890;28;123846;-62
2022/09/30 04:19:42;;;;;;;18.48;12.30;;;;;;;8.59;59.30;100829.59;4971734;28;124563;-62
2022/09/30 04:22:09;;;;;;;17.02;12.27;;;;;;;8.59;59.29;100837.53;4980508;28;114319;-62
2022/09/30 04:24:38;;;;;;;16.48;12.10;;;;;;;8.57;59.11;100836.72;4978908;28;114830;-62
2022/09/30 04:27:05;;;;;;;18.35;11.80;;;;;;;8.56;59.10;100840.25;4975097;28;124275;-62
2022/09/30 04:29:32;;;;;;;16.45;11.38;;;;;;;8.54;58.90;100842.09;4973637;28;124260;-62
2022/09/30 04:31:59;;;;;;;16.92;11.13;;;;;;;8.51;59.19;100845.72;4973561;28;114529;-62
2022/09/30 04:34:26;;;;;;;15.65;11.30;;;;;;;8.50;59.08;100845.78;4976467;28;114165;-62
2022/09/30 04:36:53;;;;;;;17.58;11.63;;;;;;;8.48;59.11;100855.53;4974780;28;122995;-62
2022/09/30 04:39:20;;;;;;;20.05;12.45;;;;;;;8.45;58.84;100853.84;4975553;28;124573;-62
2022/09/30 04:41:47;;;;;;;17.98;12.38;;;;;;;8.43;58.86;100860.97;4971845;28;113319;-62
2022/09/30 04:44:14;;;;;;;16.48;12.00;;;;;;;8.42;58.70;100858.38;4974979;28;114297;-63
2022/09/30 04:46:42;;;;;;;18.40;11.95;;;;;;;8.39;59.09;100854.88;4977871;28;124740;-63
2022/09/30 04:49:09;;;;;;;15.73;11.35;;;;;;;8.36;58.93;100855.03;4974027;28;123536;-63
2022/09/30 04:51:37;;;;;;;17.67;11.73;;;;;;;8.35;58.64;100863.84;4975705;28;114249;-63
2022/09/30 04:54:04;;;;;;;17.98;12.20;;;;;;;8.33;58.91;100865.69;4976609;28;113529;-63
2022/09/30 04:56:31;;;;;;;18.85;12.70;;;;;;;8.31;59.07;100866.66;4974219;28;124692;-63
2022/09/30 04:58:58;;;;;;;17.20;12.07;;;;;;;8.30;59.24;100871.06;4973377;28;124633;-63
2022/09/30 05:01:26;;;;;;;20.55;11.95;;;;;;;8.29;59.10;100871.13;4978646;28;114002;-60
2022/09/30 05:03:53;;;;;;;16.30;11.85;;;;;;;8.30;59.07;100871.06;4981346;28;114493;-63
2022/09/30 05:06:20;;;;;;;18.88;12.63;;;;;;;8.28;59.23;100875.53;4975554;28;124534;-63
2022/09/30 05:08:48;;;;;;;18.10;12.95;;;;;;;8.28;59.48;100883.44;4978419;28;124628;-63
2022/09/30 05:11:18;;;;;;;19.95;12.20;;;;;;;8.29;59.41;100890.44;4984316;28;114174;-63
2022/09/30 05:13:46;;;;;;;19.02;12.73;;;;;;;8.28;59.61;100893.13;4979465;28;114074;-63
2022/09/30 05:16:14;;;;;;;20.02;13.18;;;;;;;8.27;59.08;100892.28;4976841;28;123878;-63
2022/09/30 05:18:44;;;;;;;18.40;12.68;;;;;;;8.26;59.24;100884.41;4973640;28;124550;-63
2022/09/30 05:21:15;;;;;;;18.50;13.05;;;;;;;8.26;59.21;100889.69;4969373;28;115649;-63
2022/09/30 05:23:42;;;;;;;17.58;11.85;;;;;;;8.25;59.18;100899.41;4957173;28;115604;-63
2022/09/30 05:26:09;;;;;;;17.27;12.63;;;;;;;8.26;59.25;100880.00;4971582;28;126158;-63
2022/09/30 05:28:42;;;;;;;21.73;14.18;;;;;;;8.24;59.57;100892.38;4973037;28;123813;-63
2022/09/30 05:31:10;;;;;;;17.13;12.18;;;;;;;8.24;59.53;100892.38;4975768;28;114208;-63
2022/09/30 05:33:39;;;;;;;17.27;12.55;;;;;;;8.24;59.14;100900.28;4979645;28;114534;-63
2022/09/30 05:36:08;;;;;;;18.80;13.02;;;;;;;8.23;59.55;100895.06;4976056;28;123726;-63
2022/09/30 05:38:35;;;;;;;16.88;12.48;;;;;;;8.20;59.24;100901.31;4975409;28;123087;-63
2022/09/30 05:41:10;;;;;;;21.20;13.40;;;;;;;8.20;59.76;100901.31;4982951;28;114598;-63
2022/09/30 05:43:39;;;;;;;17.63;13.10;;;;;;;8.19;59.78;100895.19;4980692;28;114228;-63
2022/09/30 05:46:06;;;;;;;20.92;14.35;;;;;;;8.20;59.58;100901.31;4978722;28;124036;-60
2022/09/30 05:48:34;;;;;;;25.88;15.13;;;;;;;8.21;59.55;100897.75;4974857;28;124044;-61
2022/09/30 05:51:01;;;;;;;19.75;14.05;;;;;;;8.22;59.63;100904.75;4985946;28;114496;-61
2022/09/30 05:53:30;;;;;;;21.85;13.85;;;;;;;8.23;59.68;100909.16;4977349;28;114321;-61
2022/09/30 05:55:58;;;;;;;23.02;15.20;;;;;;;8.24;60.01;100913.50;4977795;28;124634;-62
2022/09/30 05:58:26;;;;;;;20.70;13.77;;;;;;;8.25;59.97;100912.59;4978922;28;123810;-62
2022/09/30 06:00:53;;;;;;;20.60;13.68;;;;;;;8.28;59.81;100922.16;4975197;28;113154;-61
2022/09/30 06:03:21;;;;;;;21.48;14.20;;;;;;;8.28;59.94;100923.00;4981127;28;114137;-61
2022/09/30 06:05:55;;;;;;;19.45;14.48;;;;;;;8.29;59.84;100926.53;4975284;28;123879;-61
2022/09/30 06:08:22;;;;;;;21.80;14.43;;;;;;;8.31;59.98;100925.56;4969219;28;123638;-61
2022/09/30 06:10:49;;;;;;;22.33;13.68;;;;;;;8.33;59.96;100934.28;4979012;28;115475;-60
2022/09/30 06:13:17;;;;;;;19.35;13.85;;;;;;;8.34;59.84;100938.66;4971245;28;115240;-60
2022/09/30 06:15:55;;;;;;;18.13;12.57;;;;;;;8.35;59.73;100953.56;4979673;28;122048;-61
2022/09/30 06:18:24;;;;;;;20.35;12.98;;;;;;;8.37;59.77;100956.16;4973137;28;123805;-61
2022/09/30 06:20:54;;;;;;;17.52;12.05;;;;;;;8.37;59.76;100950.88;4980476;28;114924;-61
2022/09/30 06:23:21;;;;;;;18.38;12.35;;;;;;;8.38;59.94;100950.84;4976561;28;114104;-61
2022/09/30 06:25:52;;;;;;;20.33;12.77;;;;;;;8.40;60.02;100950.78;4974914;28;123837;-61
2022/09/30 06:28:20;;;;;;;19.67;13.80;;;;;;;8.42;60.16;100956.03;4976453;28;123723;-60
2022/09/30 06:30:48;;;;;;;21.58;13.52;;;;;;;8.44;59.81;100964.75;4975879;28;114278;-61
2022/09/30 06:33:16;;;;;;;23.33;14.52;;;;;;;8.48;60.33;100963.75;4974266;28;114386;-60
2022/09/30 06:35:43;;;;;;;23.08;15.40;;;;;;;8.53;60.41;100961.78;4973099;28;124789;-61
2022/09/30 06:38:10;;;;;;;22.00;15.25;;;;;;;8.59;60.33;100969.53;4979148;28;124783;-61
2022/09/30 06:40:37;;;;;;;22.85;15.27;;;;;;;8.67;60.81;100964.81;4977353;28;114738;-61
2022/09/30 06:43:05;;;;;;;21.42;15.15;;;;;;;8.76;60.81;100969.78;4974268;28;114253;-61
2022/09/30 06:45:34;;;;;;;23.10;14.65;;;;;;;8.86;61.04;100965.03;4972540;28;124100;-61
2022/09/30 06:48:04;;;;;;;20.05;14.15;;;;;;;9.00;61.30;100961.88;4976090;28;124178;-61
2022/09/30 06:50:32;;;;;;;21.38;14.73;;;;;;;9.16;61.14;100956.91;4979637;28;114010;-61
2022/09/30 06:53:05;;;;;;;19.55;14.63;;;;;;;9.31;61.31;100960.75;4973782;28;113823;-62
2022/09/30 06:55:37;;;;;;;21.02;14.50;;;;;;;9.46;61.20;100954.88;4975940;28;124666;-61
2022/09/30 06:58:10;;;;;;;21.33;14.43;;;;;;;9.62;61.26;100948.97;4963432;28;122852;-61
2022/09/30 07:00:37;;;;;;;20.63;14.60;;;;;;;9.78;61.51;100950.09;4984820;28;115222;-61
2022/09/30 07:03:08;;;;;;;21.55;14.73;;;;;;;9.93;61.59;100952.13;4988628;28;116382;-61
2022/09/30 07:05:36;;;;;;;21.20;15.55;;;;;;;10.10;61.58;100955.88;4980937;28;124558;-61
2022/09/30 07:08:04;;;;;;;23.17;17.33;;;;;;;10.25;61.60;100949.94;4975406;28;123958;-61
2022/09/30 07:10:32;;;;;;;26.42;17.40;;;;;;;10.40;61.21;100961.69;4988232;28;113883;-61
2022/09/30 07:13:01;;;;;;;25.52;17.10;;;;;;;10.52;61.20;100947.91;4984154;28;113879;-61
2022/09/30 07:15:28;;;;;;;25.00;17.92;;;;;;;10.65;61.24;100958.84;4987997;28;124122;-61
2022/09/30 07:17:55;;;;;;;26.38;18.38;;;;;;;10.81;61.24;100958.19;4984387;28;124688;-61
2022/09/30 07:20:23;;;;;;;25.52;18.65;;;;;;;10.94;61.34;100959.34;4981306;28;113575;-61
2022/09/30 07:22:50;;;;;;;25.55;18.75;;;;;;;11.07;61.29;100965.81;4987483;28;114153;-61
2022/09/30 07:25:18;;;;;;;27.58;18.45;;;;;;;11.19;61.06;100953.81;4968290;28;122943;-61
2022/09/30 07:27:45;;;;;;;25.42;19.27;;;;;;;11.32;61.25;100962.06;4986689;28;124745;-61
2022/09/30 07:30:12;;;;;;;25.05;19.60;;;;;;;11.42;61.21;100960.69;5000205;28;114156;-61
2022/09/30 07:32:52;;;;;;;27.55;20.15;;;;;;;11.53;61.09;100959.31;4985945;28;113845;-61
2022/09/30 07:35:19;;;;;;;29.23;19.90;;;;;;;11.63;61.22;100957.97;4992465;28;124455;-61
2022/09/30 07:37:46;;;;;;;26.20;19.55;;;;;;;11.73;61.14;100959.22;4991451;28;124704;-61
2022/09/30 07:40:14;;;;;;;28.75;20.70;;;;;;;11.84;61.27;100961.38;4987302;28;114431;-61
2022/09/30 07:42:44;;;;;;;29.38;20.33;;;;;;;11.95;61.19;100958.25;4979594;28;114280;-61
2022/09/30 07:45:15;;;;;;;25.48;17.95;;;;;;;12.04;61.16;100961.31;4991473;28;123881;-61
2022/09/30 07:47:42;;;;;;;27.98;21.48;;;;;;;12.14;61.26;100953.72;4991757;28;124794;-61
2022/09/30 07:50:14;;;;;;;31.25;22.15;;;;;;;12.25;61.05;100956.72;4992336;28;115511;-61
2022/09/30 07:52:41;;;;;;;27.95;21.00;;;;;;;12.37;61.19;100959.69;4975705;28;114255;-61
2022/09/30 07:55:08;;;;;;;27.90;21.40;;;;;;;12.45;60.92;100962.81;4976676;28;123152;-61
2022/09/30 07:57:36;;;;;;;32.67;22.65;;;;;;;12.56;60.97;100968.41;4990394;28;124731;-61
2022/09/30 08:00:03;;;;;;;30.83;23.40;;;;;;;12.68;61.05;100963.41;4977433;28;114372;-61
2022/09/30 08:02:51;;;;;;;34.83;23.27;;;;;;;12.79;61.17;100969.91;4988489;28;113979;-61
2022/09/30 08:05:18;;;;;;;31.90;24.80;;;;;;;12.91;61.14;100960.44;4991368;28;124146;-61
2022/09/30 08:07:45;;;;;;;33.03;23.52;;;;;;;12.98;60.96;100959.16;4982402;28;123948;-61
2022/09/30 08:10:13;;;;;;;32.22;24.90;;;;;;;13.07;61.05;100970.25;4971760;28;114200;-61
2022/09/30 08:12:40;;;;;;;33.95;24.65;;;;;;;13.15;60.97;100962.72;4972216;28;114377;-61
2022/09/30 08:15:08;;;;;;;33.00;25.77;;;;;;;13.24;60.83;100967.53;4982169;28;124785;-60
2022/09/30 08:17:35;;;;;;;57.60;36.28;;;;;;;13.32;60.91;100962.69;4986813;28;124760;-61
2022/09/30 08:20:03;;;;;;;47.13;28.92;;;;;;;13.46;60.98;100955.75;4970851;28;114179;-61
2022/09/30 08:22:30;;;;;;;35.22;27.48;;;;;;;13.57;60.92;100969.31;4970883;28;114138;-61
2022/09/30 08:24:57;;;;;;;37.40;28.30;;;;;;;13.67;60.53;100959.03;4977955;28;123922;-61
2022/09/30 08:27:24;;;;;;;37.22;28.42;;;;;;;13.77;60.62;100955.75;4982659;28;123469;-61
2022/09/30 08:29:51;;;;;;;34.38;27.02;;;;;;;13.89;60.65;100958.66;4984354;28;115254;-61
2022/09/30 08:32:22;;;;;;;36.83;28.02;;;;;;;14.00;60.68;100966.91;4992959;28;113879;-61
2022/09/30 08:34:49;;;;;;;36.78;28.27;;;;;;;14.10;60.46;100969.88;4974901;28;123120;-61
2022/09/30 08:37:17;;;;;;;38.08;28.35;;;;;;;14.19;60.41;100962.22;4968558;28;123995;-61
2022/09/30 08:39:45;;;;;;;35.70;27.85;;;;;;;14.30;60.42;100968.75;4988158;28;114986;-61
2022/09/30 08:42:32;;;;;;;39.40;28.88;;;;;;;14.43;60.32;100964.41;4990147;28;115133;-61
2022/09/30 08:45:21;;;;;;;34.92;28.30;;;;;;;14.54;60.22;100961.06;4958529;28;123952;-62
2022/09/30 08:47:59;;;;;;;33.58;27.88;;;;;;;14.64;60.25;100962.28;4989500;28;124170;-61
2022/09/30 08:50:47;;;;;;;38.55;29.30;;;;;;;14.75;60.12;100959.84;4991504;28;114223;-61
2022/09/30 08:53:32;;;;;;;34.38;27.63;;;;;;;14.88;59.95;100949.28;4989676;28;114904;-61
2022/09/30 08:56:01;;;;;;;35.55;28.35;;;;;;;15.01;59.88;100954.69;4988809;28;124401;-61
2022/09/30 08:58:36;;;;;;;34.70;27.95;;;;;;;15.12;59.80;100962.88;4995360;28;124805;-61
2022/09/30 09:01:14;;;;;;;35.33;28.00;;;;;;;15.22;59.71;100963.19;5011703;28;114281;-61
2022/09/30 09:03:41;;;;;;;32.92;27.60;;;;;;;15.32;59.69;100964.31;4988520;28;114009;-61
2022/09/30 09:06:41;;;;;;;34.13;29.00;;;;;;;15.46;59.73;100971.44;4976525;28;125520;-62
2022/09/30 09:09:21;;;;;;;34.90;26.80;;;;;;;15.59;59.38;100966.19;4957282;28;122624;-62
2022/09/30 09:12:08;;;;;;;31.45;26.83;;;;;;;15.70;59.24;100974.34;4995228;28;113992;-62
2022/09/30 09:14:41;;;;;;;32.60;26.38;;;;;;;15.81;59.12;100964.84;4983892;28;114859;-61
2022/09/30 09:17:36;;;;;;;34.58;26.35;;;;;;;15.88;59.23;100960.78;4975267;28;124185;-62
2022/09/30 09:20:14;;;;;;;31.08;25.90;;;;;;;15.98;59.08;100956.56;4982210;28;122808;-61
2022/09/30 09:22:44;;;;;;;28.17;24.25;;;;;;;16.08;58.82;100957.66;4979751;28;114150;-61
2022/09/30 09:25:14;;;;;;;27.50;22.92;;;;;;;16.20;58.75;100952.44;4973412;28;113691;-62
2022/09/30 09:27:53;;;;;;;27.40;22.92;;;;;;;16.32;58.70;100959.66;4987654;28;124366;-62
2022/09/30 09:30:23;;;;;;;27.33;22.70;;;;;;;16.43;58.59;100954.44;4973916;28;123956;-61
2022/09/30 09:32:55;;;;;;;24.05;20.75;;;;;;;16.59;58.42;100961.41;4978540;28;115422;-62
2022/09/30 09:35:25;;;;;;;23.55;20.40;;;;;;;16.70;58.12;100954.34;4975714;28;115061;-62
2022/09/30 09:38:27;;;;;;;25.23;19.92;;;;;;;16.82;58.04;100957.16;4988491;28;124408;-61
2022/09/30 09:41:03;;;;;;;23.35;20.23;;;;;;;16.92;57.73;100969.81;4990579;28;123652;-62
2022/09/30 09:43:50;;;;;;;22.55;18.17;;;;;;;17.03;57.94;100966.41;4979370;28;114610;-61
2022/09/30 09:46:25;;;;;;;22.70;17.00;;;;;;;17.14;57.52;100960.31;4986145;28;114040;-61
2022/09/30 09:49:22;;;;;;;24.27;17.52;;;;;;;17.24;56.95;100953.31;4979681;28;124862;-61
2022/09/30 09:52:04;;;;;;;20.38;16.65;;;;;;;17.33;56.96;100967.88;5000854;28;124574;-62
2022/09/30 09:54:40;;;;;;;19.75;16.55;;;;;;;17.43;56.88;100974.25;4968398;28;114234;-62
2022/09/30 09:57:09;;;;;;;16.42;13.45;;;;;;;17.53;56.17;100977.13;4975470;28;114069;-62
2022/09/30 09:59:39;;;;;;;17.48;14.48;;;;;;;17.61;55.75;100971.22;4980443;28;123788;-62
2022/09/30 10:02:28;;;;;;;16.85;13.32;;;;;;;17.66;55.67;100969.91;4979344;28;124477;-62
2022/09/30 10:05:00;;;;;;;17.73;14.00;;;;;;;17.73;55.44;100974.84;4977027;28;114207;-62
2022/09/30 10:07:30;;;;;;;16.10;13.60;;;;;;;17.79;55.35;100969.03;4982177;28;113160;-62
2022/09/30 10:10:08;;;;;;;12.85;10.00;;;;;;;17.86;54.85;100973.00;4978356;28;124054;-62
2022/09/30 10:12:35;;;;;;;11.95;10.45;;;;;;;17.92;54.34;100967.19;4980936;28;124211;-62
2022/09/30 10:15:20;;;;;;;13.35;11.02;;;;;;;18.00;54.49;100966.63;4973434;28;113355;-63
2022/09/30 10:17:52;;;;;;;15.90;11.60;;;;;;;18.07;54.34;100963.34;4979754;28;114010;-62
2022/09/30 10:20:29;;;;;;;14.85;12.07;;;;;;;18.16;53.89;100955.59;4976667;28;124877;-62
2022/09/30 10:23:29;;;;;;;15.50;12.68;;;;;;;18.23;54.00;100956.84;4975113;28;124001;-62
2022/09/30 10:25:59;;;;;;;15.45;12.95;;;;;;;18.30;53.60;100963.47;4977022;28;115187;-62
2022/09/30 10:28:30;;;;;;;18.70;12.75;;;;;;;18.38;53.34;100966.41;4977466;28;114928;-62
2022/09/30 10:31:03;;;;;;;17.80;12.15;;;;;;;18.45;53.31;100966.81;4981784;28;124294;-62
2022/09/30 10:33:59;;;;;;;14.60;12.40;;;;;;;18.51;53.49;100960.13;4975288;28;123836;-62
2022/09/30 10:36:35;;;;;;;14.75;10.90;;;;;;;18.58;53.11;100956.00;4976717;28;114712;-62
2022/09/30 10:39:07;;;;;;;15.07;11.25;;;;;;;18.65;52.58;100957.22;4983823;28;114437;-62
2022/09/30 10:41:37;;;;;;;15.32;11.95;;;;;;;18.70;52.13;100954.19;4979962;28;124281;-62
2022/09/30 10:44:15;;;;;;;13.02;9.95;;;;;;;18.75;52.17;100957.38;4988780;28;123868;-62
2022/09/30 10:46:45;;;;;;;10.48;8.05;;;;;;;18.80;51.71;100950.69;4990562;28;114159;-63
2022/09/30 10:49:41;;;;;;;13.55;10.40;;;;;;;18.86;51.69;100955.59;4988458;28;114001;-62
2022/09/30 10:52:19;;;;;;;13.77;10.50;;;;;;;18.92;51.54;100958.78;4978865;28;124395;-62
2022/09/30 10:54:55;;;;;;;15.48;10.70;;;;;;;19.00;51.23;100961.69;4981625;28;123846;-62
2022/09/30 10:57:33;;;;;;;12.77;9.85;;;;;;;19.06;51.34;100955.84;4974568;28;114316;-62
2022/09/30 11:00:13;;;;;;;14.02;11.23;;;;;;;19.12;51.50;100960.75;4986110;28;114534;-61
2022/09/30 11:02:50;;;;;;;15.38;11.98;;;;;;;19.20;50.88;100962.81;4989282;28;124801;-63
2022/09/30 11:05:27;;;;;;;20.00;13.80;;;;;;;19.23;50.72;100967.91;4990839;28;124650;-62
2022/09/30 11:08:15;;;;;;;17.87;13.17;;;;;;;19.24;50.98;100970.50;4963321;28;113318;-62
2022/09/30 11:11:13;;;;;;;15.75;13.68;;;;;;;19.33;50.92;100951.94;4981115;28;114264;-62
2022/09/30 11:14:04;;;;;;;16.92;14.02;;;;;;;19.39;50.94;100964.88;4979107;28;123900;-63
2022/09/30 11:16:56;;;;;;;17.65;13.57;;;;;;;19.46;50.87;100958.03;4963305;28;123784;-62
2022/09/30 11:19:35;;;;;;;16.48;13.35;;;;;;;19.53;50.59;100959.22;4980806;28;115257;-62
2022/09/30 11:22:15;;;;;;;13.93;11.45;;;;;;;19.62;50.43;100953.09;4988847;28;114857;-62
2022/09/30 11:24:44;;;;;;;14.40;11.90;;;;;;;19.71;50.26;100956.03;4984949;28;124192;-62
2022/09/30 11:27:23;;;;;;;15.23;11.57;;;;;;;19.74;49.79;100955.81;4980214;28;122867;-63
2022/09/30 11:30:16;;;;;;;13.88;10.25;;;;;;;19.78;50.03;100957.28;4984790;28;113666;-61
2022/09/30 11:33:12;;;;;;;10.98;9.32;;;;;;;19.85;50.35;100947.72;4986016;28;114079;-61
2022/09/30 11:36:04;;;;;;;11.02;8.85;;;;;;;19.92;50.11;100943.53;4977870;28;123854;-61
2022/09/30 11:39:11;;;;;;;9.50;8.50;;;;;;;19.94;49.94;100941.56;4988403;28;124503;-59